Time;durP1;ratioP1;P1;durP2;ratioP2;P2;SDS_P1;SDS_P2;PMS_P1;PMS_P2;Temp;Humidity;BMP_temperature;BMP_pressure;BME280_temperature;BME280_humidity;BME280_pressure;Samples;Min_cycle;Max_cycle;Signal;HPM_P1;HPM_P2
2021/05/26 00:01:59;;;;;;;14.80;7.70;;;10.40;99.90;;;;;;4719850;30;20212;-85
2021/05/26 00:04:25;;;;;;;10.47;6.70;;;10.50;99.90;;;;;;4720233;30;20199;-85
2021/05/26 00:06:51;;;;;;;14.83;8.00;;;;;;;;;;4720063;30;20646;-85
2021/05/26 00:09:17;;;;;;;12.67;7.37;;;10.50;99.90;;;;;;4720152;30;20687;-85
2021/05/26 00:11:43;;;;;;;11.60;7.40;;;10.50;99.90;;;;;;4720247;30;20258;-86
2021/05/26 00:14:09;;;;;;;12.73;7.30;;;10.50;99.90;;;;;;4720597;30;20546;-85
2021/05/26 00:16:37;;;;;;;10.90;6.67;;;10.50;99.90;;;;;;4735842;30;20198;-86
2021/05/26 00:19:03;;;;;;;10.90;7.23;;;10.50;99.90;;;;;;4705541;30;20533;-84
2021/05/26 00:21:30;;;;;;;14.27;7.40;;;10.50;99.90;;;;;;4719674;30;20254;-85
2021/05/26 00:23:57;;;;;;;11.37;6.77;;;10.50;99.90;;;;;;4705535;30;20211;-84
2021/05/26 00:26:23;;;;;;;12.67;6.67;;;;;;;;;;4720043;30;20196;-84
2021/05/26 00:28:50;;;;;;;11.77;6.67;;;10.40;99.90;;;;;;4720473;30;20199;-84
2021/05/26 00:31:20;;;;;;;11.27;6.20;;;10.40;99.90;;;;;;4736015;30;20252;-85
2021/05/26 00:33:46;;;;;;;14.13;6.67;;;10.40;99.90;;;;;;4692206;30;20219;-85
2021/05/26 00:36:12;;;;;;;12.60;7.30;;;10.60;99.90;;;;;;4719706;30;20282;-84
2021/05/26 00:38:37;;;;;;;11.00;7.40;;;10.40;99.90;;;;;;4735956;30;20192;-86
2021/05/26 00:41:03;;;;;;;11.50;7.30;;;;;;;;;;4735913;30;20632;-84
2021/05/26 00:43:29;;;;;;;9.70;5.97;;;10.30;99.90;;;;;;4735895;30;20196;-84
2021/05/26 00:45:55;;;;;;;15.17;6.33;;;10.30;99.90;;;;;;4735805;30;20283;-84
2021/05/26 00:48:20;;;;;;;9.33;7.07;;;10.30;99.90;;;;;;4734697;30;20199;-84
2021/05/26 00:50:46;;;;;;;14.63;7.10;;;10.20;99.90;;;;;;4735830;30;20223;-84
2021/05/26 00:53:14;;;;;;;11.97;7.30;;;10.20;99.90;;;;;;4720189;30;20278;-84
2021/05/26 00:55:41;;;;;;;18.60;7.73;;;10.10;99.90;;;;;;4735755;30;20198;-84
2021/05/26 00:58:07;;;;;;;12.93;6.93;;;10.10;99.90;;;;;;4719841;30;20257;-84
2021/05/26 01:00:35;;;;;;;15.00;7.70;;;10.10;99.90;;;;;;4735852;30;20277;-84
2021/05/26 01:03:02;;;;;;;16.13;7.93;;;10.00;99.90;;;;;;4719521;30;20535;-84
2021/05/26 01:05:28;;;;;;;15.57;7.93;;;10.00;99.90;;;;;;4735610;30;20202;-84
2021/05/26 01:07:54;;;;;;;12.87;7.57;;;10.00;99.90;;;;;;4705221;30;20653;-84
2021/05/26 01:10:23;;;;;;;12.70;8.10;;;10.00;99.90;;;;;;4719489;30;20226;-84
2021/05/26 01:12:49;;;;;;;14.53;8.27;;;9.90;99.90;;;;;;4735008;30;20202;-84
2021/05/26 01:15:16;;;;;;;13.50;7.80;;;9.90;99.90;;;;;;4734200;30;20199;-84
2021/05/26 01:17:42;;;;;;;12.73;7.60;;;9.90;99.90;;;;;;4735114;30;20211;-84
2021/05/26 01:20:10;;;;;;;13.07;7.80;;;9.80;99.90;;;;;;4719390;30;20724;-84
2021/05/26 01:22:36;;;;;;;15.27;8.13;;;9.80;99.90;;;;;;4719755;30;20278;-84
2021/05/26 01:25:05;;;;;;;10.83;7.30;;;9.80;99.90;;;;;;4735282;30;20669;-85
2021/05/26 01:27:31;;;;;;;12.70;7.57;;;9.80;99.90;;;;;;4735107;30;20188;-85
2021/05/26 01:29:59;;;;;;;15.10;8.13;;;9.70;99.90;;;;;;4719071;30;20677;-85
2021/05/26 01:32:25;;;;;;;10.17;7.53;;;;;;;;;;4705559;30;20235;-85
2021/05/26 01:34:51;;;;;;;12.10;7.37;;;;;;;;;;4734308;30;20226;-85
2021/05/26 01:37:17;;;;;;;13.73;8.40;;;;;;;;;;4734265;30;20195;-84
2021/05/26 01:39:50;;;;;;;13.10;8.10;;;9.60;99.90;;;;;;4719491;30;20226;-85
2021/05/26 01:42:28;;;;;;;13.97;7.60;;;9.60;99.90;;;;;;4719568;30;20227;-85
2021/05/26 01:44:53;;;;;;;11.77;7.30;;;9.50;99.90;;;;;;4735721;30;20195;-85
2021/05/26 01:47:19;;;;;;;14.67;8.40;;;9.50;99.90;;;;;;4720209;30;20235;-86
2021/05/26 01:49:45;;;;;;;16.67;8.33;;;9.40;99.90;;;;;;4707564;30;20222;-84
2021/05/26 01:52:10;;;;;;;18.77;8.13;;;9.40;99.90;;;;;;4720899;30;20686;-83
2021/05/26 01:54:36;;;;;;;20.63;8.27;;;9.50;99.90;;;;;;4737023;30;20198;-84
2021/05/26 01:57:02;;;;;;;11.13;7.30;;;9.50;99.90;;;;;;4738254;30;20282;-84
2021/05/26 01:59:27;;;;;;;17.40;7.90;;;9.40;99.90;;;;;;4722761;30;20704;-86
2021/05/26 02:01:53;;;;;;;12.20;7.27;;;9.40;99.90;;;;;;4722070;30;20203;-85
2021/05/26 02:04:19;;;;;;;13.53;7.33;;;;;;;;;;4707832;30;20199;-84
2021/05/26 02:06:59;;;;;;;13.03;8.70;;;9.30;99.90;;;;;;4707774;30;20350;-84
2021/05/26 02:09:25;;;;;;;23.53;8.10;;;;;;;;;;4738150;30;20199;-85
2021/05/26 02:14:35;;;;;;;12.93;7.60;;;9.20;99.90;;;;;;4737755;30;20245;-85
2021/05/26 02:17:00;;;;;;;14.33;7.67;;;9.20;99.90;;;;;;4722130;30;20218;-85
2021/05/26 02:19:26;;;;;;;14.70;8.40;;;9.20;99.90;;;;;;4693212;30;20195;-85
2021/05/26 02:21:52;;;;;;;17.60;7.97;;;9.10;99.90;;;;;;4736178;30;20337;-86
2021/05/26 02:24:18;;;;;;;20.37;7.73;;;9.10;99.90;;;;;;4736794;30;20230;-85
2021/05/26 02:26:43;;;;;;;18.87;8.70;;;9.10;99.90;;;;;;4722056;30;20187;-84
2021/05/26 02:29:09;;;;;;;15.93;8.53;;;;;;;;;;4707112;30;20253;-84
2021/05/26 02:31:35;;;;;;;14.97;8.57;;;9.00;99.90;;;;;;4737610;30;20215;-84
2021/05/26 02:34:01;;;;;;;16.47;8.73;;;9.00;99.90;;;;;;4707370;30;20196;-84
2021/05/26 02:36:26;;;;;;;15.87;8.60;;;8.90;99.90;;;;;;4722211;30;20337;-85
2021/05/26 02:38:53;;;;;;;16.93;8.63;;;9.00;99.90;;;;;;4737321;30;20188;-88
2021/05/26 02:41:19;;;;;;;14.40;7.63;;;;;;;;;;4737257;30;20191;-84
2021/05/26 02:43:44;;;;;;;14.23;8.13;;;8.90;99.90;;;;;;4737689;30;20192;-85
2021/05/26 02:46:10;;;;;;;16.20;8.27;;;8.90;99.90;;;;;;4693133;30;20191;-85
2021/05/26 02:48:36;;;;;;;14.77;7.83;;;8.60;99.90;;;;;;4722278;30;20274;-85
2021/05/26 02:51:01;;;;;;;19.27;8.13;;;9.00;99.90;;;;;;4709161;30;20669;-86
2021/05/26 02:53:27;;;;;;;17.80;8.03;;;8.80;99.90;;;;;;4758524;30;20184;-85
2021/05/26 02:55:53;;;;;;;20.80;9.53;;;8.80;99.90;;;;;;4728147;30;20186;-85
2021/05/26 02:58:18;;;;;;;13.33;7.30;;;8.80;99.90;;;;;;4746119;30;20199;-84
2021/05/26 03:00:45;;;;;;;14.03;7.87;;;;;;;;;;4721858;30;20203;-85
2021/05/26 03:03:11;;;;;;;21.03;11.30;;;;;;;;;;4737061;30;20198;-86
2021/05/26 03:05:36;;;;;;;18.20;9.73;;;8.80;99.90;;;;;;4721032;30;20191;-85
2021/05/26 03:08:02;;;;;;;16.17;9.27;;;8.80;99.90;;;;;;4737099;30;20665;-85
2021/05/26 03:10:28;;;;;;;15.80;8.03;;;8.80;99.90;;;;;;4692434;30;20241;-83
2021/05/26 03:12:54;;;;;;;14.63;7.00;;;;;;;;;;4721679;30;20713;-85
2021/05/26 03:15:20;;;;;;;15.00;8.53;;;8.70;99.90;;;;;;4736731;30;20190;-86
2021/05/26 03:17:46;;;;;;;13.27;7.87;;;8.70;99.90;;;;;;4736933;30;20187;-85
2021/05/26 03:20:15;;;;;;;12.73;7.80;;;8.80;99.90;;;;;;4720988;30;20285;-84
2021/05/26 03:22:41;;;;;;;14.67;7.33;;;8.80;99.90;;;;;;4736560;30;20171;-85
2021/05/26 03:25:09;;;;;;;17.63;9.13;;;8.80;99.90;;;;;;4736100;30;20665;-86
2021/05/26 03:27:37;;;;;;;19.90;9.55;;;8.80;99.90;;;;;;4732087;30;20550;-85
2021/05/26 03:30:09;;;;;;;13.87;7.73;;;8.80;99.90;;;;;;4721528;30;20210;-85
2021/05/26 03:32:37;;;;;;;14.37;7.93;;;8.90;99.90;;;;;;4733660;30;20227;-84
2021/05/26 03:35:03;;;;;;;14.60;7.07;;;;;;;;;;4735916;30;20219;-85
2021/05/26 03:37:29;;;;;;;14.47;7.03;;;8.90;99.90;;;;;;4734670;30;20266;-85
2021/05/26 03:39:55;;;;;;;12.60;7.00;;;8.90;99.90;;;;;;4718910;30;20204;-85
2021/05/26 03:42:21;;;;;;;15.27;8.20;;;9.00;99.90;;;;;;4718666;30;20199;-86
2021/05/26 03:44:47;;;;;;;16.43;8.23;;;;;;;;;;4719011;30;20225;-86
2021/05/26 03:47:13;;;;;;;12.00;7.00;;;9.10;99.90;;;;;;4707208;30;20207;-86
2021/05/26 03:49:39;;;;;;;21.93;12.23;;;9.10;99.90;;;;;;4718755;30;20196;-86
2021/05/26 03:52:06;;;;;;;15.13;6.97;;;9.10;99.90;;;;;;4734019;30;20285;-86
2021/05/26 03:54:34;;;;;;;14.83;7.57;;;;;;;;;;4718958;30;20234;-85
2021/05/26 03:57:00;;;;;;;13.37;7.23;;;9.20;99.90;;;;;;4718841;30;20195;-84
2021/05/26 03:59:26;;;;;;;14.63;6.93;;;9.20;99.90;;;;;;4734018;30;20270;-85
2021/05/26 04:01:51;;;;;;;13.00;6.10;;;9.30;99.90;;;;;;4703898;30;20649;-86
2021/05/26 04:04:17;;;;;;;10.77;6.30;;;9.30;99.90;;;;;;4703689;30;20716;-86
2021/05/26 04:06:43;;;;;;;13.03;7.20;;;9.30;99.90;;;;;;4719249;30;20669;-85
2021/05/26 04:09:09;;;;;;;13.73;7.43;;;;;;;;;;4704154;30;20687;-86
2021/05/26 04:11:35;;;;;;;11.07;6.00;;;;;;;;;;4704474;30;20227;-85
2021/05/26 04:14:00;;;;;;;13.00;6.57;;;9.50;99.90;;;;;;4735135;30;20199;-85
2021/05/26 04:16:26;;;;;;;12.63;6.07;;;9.50;99.90;;;;;;4702958;30;20207;-84
2021/05/26 04:18:52;;;;;;;13.30;6.17;;;9.60;99.90;;;;;;4703640;30;20570;-85
2021/05/26 04:21:17;;;;;;;10.67;5.80;;;9.60;99.90;;;;;;4703076;30;20246;-84
2021/05/26 04:23:43;;;;;;;10.37;6.03;;;9.70;99.90;;;;;;4718486;30;20535;-85
2021/05/26 04:26:09;;;;;;;12.20;6.87;;;9.70;99.90;;;;;;4733236;30;20680;-85
2021/05/26 04:28:41;;;;;;;13.37;5.90;;;9.70;99.90;;;;;;4718156;30;20748;-87
2021/05/26 04:31:08;;;;;;;9.57;5.23;;;9.80;99.90;;;;;;4718281;30;20219;-84
2021/05/26 04:33:34;;;;;;;9.63;6.17;;;9.80;99.90;;;;;;4715015;30;20199;-85
2021/05/26 04:35:59;;;;;;;9.20;5.57;;;9.80;99.90;;;;;;4701753;30;20286;-84
2021/05/26 04:38:25;;;;;;;11.70;5.93;;;9.90;99.90;;;;;;4687633;30;20231;-85
2021/05/26 04:40:51;;;;;;;8.73;5.80;;;10.00;99.90;;;;;;4714473;30;20208;-86
2021/05/26 04:43:16;;;;;;;11.00;5.07;;;10.10;99.90;;;;;;4713523;30;20567;-86
2021/05/26 04:45:42;;;;;;;10.67;5.60;;;10.10;99.90;;;;;;4717427;30;20207;-85
2021/05/26 04:48:08;;;;;;;9.73;5.07;;;10.10;99.90;;;;;;4734149;30;20231;-85
2021/05/26 04:50:34;;;;;;;6.97;4.63;;;10.10;99.90;;;;;;4734769;30;20687;-85
2021/05/26 04:52:59;;;;;;;9.97;4.90;;;10.20;99.90;;;;;;4687455;30;20235;-85
2021/05/26 04:55:25;;;;;;;9.30;4.50;;;10.30;99.90;;;;;;4699717;30;20653;-85
2021/05/26 04:58:01;;;;;;;11.23;5.27;;;10.30;99.90;;;;;;4702816;30;20676;-86
2021/05/26 05:00:26;;;;;;;9.03;4.63;;;10.30;99.90;;;;;;4733513;30;20187;-86
2021/05/26 05:02:53;;;;;;;9.00;4.97;;;10.40;99.90;;;;;;4718574;30;20610;-85
2021/05/26 05:05:19;;;;;;;9.93;4.90;;;10.50;99.90;;;;;;4717639;30;20244;-86
2021/05/26 05:07:45;;;;;;;9.43;4.40;;;10.50;99.90;;;;;;4735112;30;20672;-86
2021/05/26 05:10:11;;;;;;;8.83;4.47;;;10.50;99.90;;;;;;4726236;30;20195;-85
2021/05/26 05:12:37;;;;;;;8.33;4.30;;;10.60;99.90;;;;;;4735714;30;20254;-85
2021/05/26 05:15:04;;;;;;;11.80;4.53;;;10.60;99.90;;;;;;4735374;30;20659;-86
2021/05/26 05:17:30;;;;;;;10.30;4.60;;;10.70;99.90;;;;;;4705344;30;20195;-85
2021/05/26 05:19:55;;;;;;;8.20;4.37;;;10.80;99.90;;;;;;4719779;30;20588;-85
2021/05/26 05:22:21;;;;;;;11.47;4.10;;;10.80;99.90;;;;;;4719142;30;20247;-85
2021/05/26 05:24:46;;;;;;;6.70;4.33;;;10.90;99.90;;;;;;4734699;30;20191;-85
2021/05/26 05:27:12;;;;;;;10.20;4.10;;;11.00;99.90;;;;;;4719833;30;20282;-85
2021/05/26 05:29:38;;;;;;;7.60;4.22;;;11.00;99.90;;;;;;4723238;30;20191;-85
2021/05/26 05:32:04;;;;;;;5.65;3.47;;;11.10;99.90;;;;;;4722526;30;20587;-85
2021/05/26 05:34:30;;;;;;;7.43;3.95;;;11.10;99.90;;;;;;4722462;30;20250;-85
2021/05/26 05:36:56;;;;;;;8.63;4.50;;;11.10;99.90;;;;;;4723625;30;20191;-84
2021/05/26 05:39:21;;;;;;;6.60;3.70;;;11.20;99.90;;;;;;4693553;30;20195;-84
2021/05/26 05:41:47;;;;;;;7.13;4.17;;;;;;;;;;4738408;30;20290;-85
2021/05/26 05:44:13;;;;;;;8.23;3.80;;;11.50;99.90;;;;;;4738034;30;20192;-84
2021/05/26 05:46:39;;;;;;;5.57;3.70;;;11.50;99.90;;;;;;4737876;30;20550;-84
2021/05/26 05:49:05;;;;;;;7.10;3.70;;;11.40;99.90;;;;;;4721995;30;20187;-84
2021/05/26 05:51:30;;;;;;;9.60;3.90;;;11.50;99.90;;;;;;4737013;30;20229;-84
2021/05/26 05:53:56;;;;;;;9.18;4.28;;;11.50;99.90;;;;;;4707585;30;20287;-83
2021/05/26 05:56:21;;;;;;;7.78;4.18;;;11.50;99.90;;;;;;4722191;30;20195;-84
2021/05/26 05:58:47;;;;;;;15.52;8.18;;;11.60;99.90;;;;;;4737915;30;20199;-84
2021/05/26 06:01:13;;;;;;;9.82;4.22;;;;;;;;;;4721349;30;20196;-84
2021/05/26 06:03:39;;;;;;;13.02;4.38;;;11.80;99.90;;;;;;4722096;30;20199;-84
2021/05/26 06:06:05;;;;;;;13.73;4.18;;;11.80;99.90;;;;;;4737020;30;20333;-84
2021/05/26 06:08:31;;;;;;;7.78;3.53;;;11.90;99.90;;;;;;4721893;30;20198;-84
2021/05/26 06:10:56;;;;;;;9.65;4.32;;;12.00;99.90;;;;;;4737298;30;20211;-84
2021/05/26 06:13:22;;;;;;;14.02;3.50;;;12.10;99.90;;;;;;4737392;30;20203;-85
2021/05/26 06:15:48;;;;;;;8.02;3.75;;;12.10;99.90;;;;;;4721515;30;20202;-85
2021/05/26 06:18:17;;;;;;;7.25;3.30;;;12.00;99.90;;;;;;4737244;30;20534;-85
2021/05/26 06:24:04;;;;;;;5.93;3.47;;;11.90;99.90;;;;;;4964151;24;20246;-85
2021/05/26 06:26:31;;;;;;;6.45;3.33;;;12.20;99.90;;;;;;4755431;30;20194;-85
2021/05/26 06:29:05;;;;;;;5.93;3.80;;;12.20;99.90;;;;;;4740819;30;20219;-87
2021/05/26 06:31:31;;;;;;;7.25;3.42;;;12.30;99.90;;;;;;4756907;30;20222;-85
2021/05/26 06:33:57;;;;;;;7.13;3.17;;;12.20;99.90;;;;;;4747416;30;20183;-85
2021/05/26 06:36:23;;;;;;;6.63;3.72;;;12.40;99.90;;;;;;4769461;30;20193;-84
2021/05/26 06:38:49;;;;;;;5.93;3.60;;;12.30;99.90;;;;;;4752967;30;20179;-83
2021/05/26 06:41:14;;;;;;;8.65;3.28;;;12.50;99.90;;;;;;4754652;30;20526;-84
2021/05/26 06:43:41;;;;;;;5.60;2.95;;;;;;;;;;4766464;30;20250;-86
2021/05/26 06:46:06;;;;;;;6.28;3.40;;;12.60;99.90;;;;;;4738598;30;20191;-84
2021/05/26 06:48:32;;;;;;;8.10;3.25;;;12.50;99.90;;;;;;4754443;30;20223;-85
2021/05/26 06:50:58;;;;;;;7.00;3.13;;;12.60;99.90;;;;;;4724499;30;20301;-85
2021/05/26 06:53:25;;;;;;;6.45;3.60;;;12.60;99.90;;;;;;4739034;30;20275;-85
2021/05/26 06:55:51;;;;;;;5.20;3.00;;;12.80;99.90;;;;;;4754819;30;20246;-85
2021/05/26 06:58:17;;;;;;;7.57;3.42;;;12.90;99.90;;;;;;4724059;30;20210;-85
2021/05/26 07:00:43;;;;;;;7.18;2.63;;;;;;;;;;4754024;30;20539;-86
2021/05/26 07:03:09;;;;;;;4.95;2.78;;;13.30;99.90;;;;;;4723714;30;20187;-85
2021/05/26 07:05:35;;;;;;;9.45;3.05;;;13.20;99.90;;;;;;4723618;30;20197;-86
2021/05/26 07:08:01;;;;;;;7.78;3.03;;;13.20;99.90;;;;;;4737637;30;20277;-87
2021/05/26 07:10:27;;;;;;;8.48;2.70;;;13.40;99.90;;;;;;4722968;30;20197;-84
2021/05/26 07:12:52;;;;;;;4.82;2.90;;;13.50;99.90;;;;;;4753343;30;20183;-85
2021/05/26 07:15:19;;;;;;;6.93;3.13;;;13.40;99.90;;;;;;4738317;30;20194;-85
2021/05/26 07:17:45;;;;;;;6.50;2.80;;;13.40;99.90;;;;;;4738021;30;20217;-85
2021/05/26 07:20:12;;;;;;;6.68;2.70;;;13.50;99.90;;;;;;4753073;30;20195;-84
2021/05/26 07:22:38;;;;;;;7.72;2.20;;;13.70;99.90;;;;;;4753024;30;20321;-85
2021/05/26 07:25:04;;;;;;;5.03;2.60;;;13.60;99.90;;;;;;4738250;30;20369;-86
2021/05/26 07:27:30;;;;;;;6.07;2.33;;;13.50;99.90;;;;;;4723408;30;20229;-84
2021/05/26 07:29:56;;;;;;;7.67;2.30;;;;;;;;;;4753215;30;20464;-84
2021/05/26 07:32:22;;;;;;;3.83;2.30;;;13.60;99.90;;;;;;4753579;30;20512;-85
2021/05/26 07:34:48;;;;;;;5.70;2.35;;;;;;;;;;4752983;30;20666;-84
2021/05/26 07:37:14;;;;;;;5.82;2.40;;;13.60;99.90;;;;;;4722825;30;20269;-84
2021/05/26 07:39:40;;;;;;;3.75;2.08;;;13.70;99.90;;;;;;4738017;30;20522;-85
2021/05/26 07:42:08;;;;;;;14.70;3.13;;;14.00;99.90;;;;;;4739887;30;20286;-85
2021/05/26 07:44:35;;;;;;;3.90;2.30;;;14.10;99.90;;;;;;4755208;30;20739;-85
2021/05/26 07:47:00;;;;;;;9.20;2.15;;;14.20;99.90;;;;;;4741221;30;20669;-85
2021/05/26 07:49:26;;;;;;;8.18;2.22;;;14.30;99.90;;;;;;4738334;30;20189;-85
2021/05/26 07:51:55;;;;;;;8.30;2.17;;;14.10;99.90;;;;;;4736765;30;20636;-85
2021/05/26 07:54:22;;;;;;;4.18;2.90;;;14.10;99.90;;;;;;4736914;30;20187;-85
2021/05/26 07:56:51;;;;;;;4.07;1.95;;;14.40;99.90;;;;;;4752028;30;20195;-85
2021/05/26 07:59:17;;;;;;;4.10;1.85;;;14.70;99.90;;;;;;4751521;30;20660;-85
2021/05/26 08:01:43;;;;;;;4.07;2.20;;;14.80;99.90;;;;;;4751334;30;20190;-85
2021/05/26 08:04:09;;;;;;;4.43;1.80;;;14.70;99.90;;;;;;4735514;30;20237;-84
2021/05/26 08:06:35;;;;;;;6.07;2.00;;;14.80;99.90;;;;;;4720682;30;20205;-85
2021/05/26 08:09:01;;;;;;;9.05;2.30;;;14.90;99.90;;;;;;4751768;30;20191;-85
2021/05/26 08:11:27;;;;;;;2.47;1.63;;;;;;;;;;4735467;30;20234;-84
2021/05/26 08:13:53;;;;;;;3.78;1.73;;;15.00;99.90;;;;;;4737660;30;20725;-84
2021/05/26 08:16:18;;;;;;;4.13;1.80;;;14.90;99.90;;;;;;4737449;30;20182;-86
2021/05/26 08:18:44;;;;;;;2.78;1.77;;;15.00;99.90;;;;;;4721271;30;20672;-84
2021/05/26 08:21:11;;;;;;;5.38;1.27;;;14.80;99.90;;;;;;4737233;30;20187;-84
2021/05/26 08:23:37;;;;;;;5.03;1.60;;;15.00;99.90;;;;;;4737012;30;20238;-85
2021/05/26 08:26:03;;;;;;;3.20;1.40;;;14.90;99.90;;;;;;4722681;30;20684;-85
2021/05/26 08:28:29;;;;;;;4.85;1.60;;;;;;;;;;4752693;30;20186;-85
2021/05/26 08:30:56;;;;;;;2.70;1.60;;;15.00;99.90;;;;;;4752989;30;20265;-85
2021/05/26 08:33:21;;;;;;;4.07;1.30;;;15.20;99.90;;;;;;4736884;30;20529;-85
2021/05/26 08:35:47;;;;;;;1.70;1.40;;;15.40;99.90;;;;;;4736718;30;20198;-85
2021/05/26 08:38:13;;;;;;;5.47;1.77;;;;;;;;;;4722536;30;20672;-84
2021/05/26 08:40:39;;;;;;;2.30;1.50;;;15.90;99.90;;;;;;4736720;30;20195;-85
2021/05/26 08:43:05;;;;;;;3.40;1.60;;;16.20;99.90;;;;;;4737080;30;20198;-85
2021/05/26 08:45:31;;;;;;;2.63;1.48;;;16.20;99.90;;;;;;4736768;30;20194;-85
2021/05/26 08:47:59;;;;;;;3.90;1.30;;;16.30;99.90;;;;;;4707730;30;20217;-86
2021/05/26 08:50:28;;;;;;;3.60;1.15;;;16.50;99.90;;;;;;4736575;30;20198;-86
2021/05/26 08:52:53;;;;;;;2.25;1.42;;;18.30;99.90;;;;;;4722887;30;20191;-85
2021/05/26 08:55:19;;;;;;;2.83;1.80;;;16.50;99.90;;;;;;4736831;30;20194;-85
2021/05/26 08:57:44;;;;;;;5.70;1.58;;;16.30;99.90;;;;;;4721940;30;20194;-85
2021/05/26 09:00:11;;;;;;;5.40;1.58;;;16.10;99.90;;;;;;4737262;30;20195;-85
2021/05/26 09:02:37;;;;;;;3.55;1.40;;;16.10;99.90;;;;;;4721336;30;20245;-85
2021/05/26 09:05:04;;;;;;;3.28;1.40;;;16.60;99.90;;;;;;4707551;30;20194;-86
2021/05/26 09:07:33;;;;;;;2.35;1.40;;;16.50;99.90;;;;;;4736756;30;20191;-86
2021/05/26 09:10:01;;;;;;;2.30;1.30;;;16.70;99.90;;;;;;4722435;30;20191;-85
2021/05/26 09:12:40;;;;;;;3.25;1.50;;;16.60;99.90;;;;;;4752328;30;20219;-89
2021/05/26 09:15:16;;;;;;;2.92;1.33;;;16.40;99.70;;;;;;4751697;30;20203;-86
2021/05/26 09:17:51;;;;;;;2.60;1.33;;;16.30;99.90;;;;;;4752268;30;20716;-85
2021/05/26 09:20:22;;;;;;;5.20;1.92;;;16.50;99.90;;;;;;4735497;30;20200;-87
2021/05/26 09:23:07;;;;;;;7.05;1.45;;;16.60;99.90;;;;;;4735999;30;20265;-86
2021/05/26 09:25:50;;;;;;;2.40;1.30;;;16.70;99.90;;;;;;4752031;30;20183;-86
2021/05/26 09:28:19;;;;;;;4.13;1.17;;;16.60;99.90;;;;;;4721240;30;20199;-87
2021/05/26 09:30:53;;;;;;;7.70;1.13;;;16.70;97.30;;;;;;4735580;30;20210;-88
2021/05/26 09:33:41;;;;;;;1.17;1.08;;;16.80;99.40;;;;;;4749200;30;20210;-86
2021/05/26 09:36:18;;;;;;;2.35;1.05;;;16.90;97.60;;;;;;4749911;30;20664;-85
2021/05/26 09:38:56;;;;;;;3.65;1.27;;;16.70;97.00;;;;;;4733776;30;20556;-87
2021/05/26 09:41:31;;;;;;;3.35;1.38;;;16.70;98.60;;;;;;4735704;30;20351;-87
2021/05/26 09:44:00;;;;;;;2.13;1.40;;;16.60;97.10;;;;;;4735346;30;20297;-85
2021/05/26 09:46:30;;;;;;;3.13;1.17;;;16.50;97.10;;;;;;4735482;30;20552;-86
2021/05/26 09:49:18;;;;;;;4.85;1.30;;;16.60;96.70;;;;;;4735263;30;20198;-86
2021/05/26 09:51:46;;;;;;;4.95;1.45;;;16.30;97.10;;;;;;4734609;30;20215;-89
2021/05/26 09:54:12;;;;;;;2.67;1.40;;;16.60;97.00;;;;;;4735357;30;20195;-88
2021/05/26 09:56:39;;;;;;;2.53;1.10;;;17.20;97.30;;;;;;4751209;30;20195;-87
2021/05/26 09:59:05;;;;;;;4.53;1.27;;;17.20;97.60;;;;;;4735266;30;20193;-87
2021/05/26 10:01:32;;;;;;;4.63;1.20;;;17.70;95.80;;;;;;4735747;30;20194;-89
2021/05/26 10:03:58;;;;;;;3.35;1.10;;;17.90;93.40;;;;;;4736028;30;20189;-88
2021/05/26 10:06:25;;;;;;;3.08;1.08;;;17.60;92.50;;;;;;4751705;30;20214;-88
2021/05/26 10:08:53;;;;;;;3.50;1.38;;;17.30;92.80;;;;;;4735350;30;20733;-88
2021/05/26 10:11:19;;;;;;;4.88;1.30;;;17.30;92.80;;;;;;4735650;30;20222;-88
2021/05/26 10:13:46;;;;;;;1.83;1.23;;;17.70;95.20;;;;;;4721697;30;20238;-86
2021/05/26 10:16:19;;;;;;;3.10;1.20;;;17.80;91.30;;;;;;4738584;30;20222;-87
2021/05/26 10:18:46;;;;;;;1.85;0.80;;;17.60;90.70;;;;;;4754145;30;20193;-89
2021/05/26 10:21:14;;;;;;;1.25;0.90;;;17.90;94.30;;;;;;4754338;30;20187;-87
2021/05/26 10:23:41;;;;;;;2.17;1.20;;;18.20;92.60;;;;;;4738246;30;20333;-88
2021/05/26 10:26:06;;;;;;;1.65;1.23;;;18.60;93.50;;;;;;4738926;30;20194;-87
2021/05/26 10:28:33;;;;;;;1.40;0.80;;;18.60;88.70;;;;;;4738710;30;20194;-88
2021/05/26 10:31:03;;;;;;;1.83;1.02;;;18.60;90.30;;;;;;4738036;30;20709;-89
2021/05/26 10:33:42;;;;;;;3.90;1.05;;;18.60;88.20;;;;;;4736408;30;20206;-87
2021/05/26 10:36:09;;;;;;;4.22;1.10;;;18.60;84.90;;;;;;4735423;30;20183;-89
2021/05/26 10:38:58;;;;;;;1.17;0.80;;;18.60;87.30;;;;;;4756970;30;20226;-87
2021/05/26 10:41:24;;;;;;;3.78;1.35;;;18.60;83.30;;;;;;4763867;30;20225;-87
2021/05/26 10:43:55;;;;;;;3.90;1.08;;;18.60;86.90;;;;;;4729269;30;20213;-87
2021/05/26 10:46:35;;;;;;;6.65;1.52;;;18.50;85.00;;;;;;4739070;30;20214;-87
2021/05/26 10:49:07;;;;;;;2.08;1.00;;;18.30;84.10;;;;;;4734242;30;20182;-87
2021/05/26 10:51:51;;;;;;;1.88;0.88;;;18.50;83.60;;;;;;4737669;30;20271;-86
2021/05/26 10:54:39;;;;;;;2.53;1.17;;;18.70;84.70;;;;;;4735217;30;20645;-87
2021/05/26 10:57:07;;;;;;;4.28;0.88;;;19.20;81.10;;;;;;4735741;30;20187;-87
2021/05/26 10:59:32;;;;;;;1.60;0.93;;;19.20;81.80;;;;;;4738096;30;20211;-88
2021/05/26 11:02:04;;;;;;;2.83;0.70;;;19.20;81.00;;;;;;4723184;30;20292;-89
2021/05/26 11:04:37;;;;;;;2.17;1.00;;;18.90;75.90;;;;;;4752063;30;20183;-89
2021/05/26 11:07:19;;;;;;;6.57;1.10;;;18.40;79.70;;;;;;4753411;30;20194;-87
2021/05/26 11:10:00;;;;;;;9.98;0.93;;;18.70;80.10;;;;;;4732598;30;20229;-87
2021/05/26 11:12:26;;;;;;;1.45;1.02;;;18.90;78.90;;;;;;4752159;30;20280;-88
2021/05/26 11:14:56;;;;;;;4.88;1.00;;;18.90;76.30;;;;;;4737354;30;20174;-88
2021/05/26 11:17:28;;;;;;;5.22;2.75;;;18.70;79.00;;;;;;4737629;30;20225;-88
2021/05/26 11:20:21;;;;;;;2.70;1.50;;;18.40;81.70;;;;;;4736070;30;20190;-89
2021/05/26 11:22:47;;;;;;;4.90;0.90;;;18.80;81.60;;;;;;4749343;30;20246;-87
2021/05/26 11:25:14;;;;;;;5.38;1.70;;;18.90;81.70;;;;;;4722692;30;20191;-88
2021/05/26 11:27:46;;;;;;;3.70;0.90;;;19.20;75.30;;;;;;4737357;30;20187;-88
2021/05/26 11:30:13;;;;;;;8.77;1.10;;;19.20;79.30;;;;;;4753301;30;20554;-88
2021/05/26 11:32:38;;;;;;;1.17;0.70;;;19.30;73.90;;;;;;4737280;30;20226;-88
2021/05/26 11:35:06;;;;;;;2.55;1.05;;;19.40;78.00;;;;;;4736757;30;20345;-89
2021/05/26 11:37:35;;;;;;;3.60;0.85;;;19.40;73.60;;;;;;4753543;30;20248;-87
2021/05/26 11:40:03;;;;;;;2.35;1.33;;;19.40;75.80;;;;;;4750511;30;20274;-87
2021/05/26 11:42:30;;;;;;;3.33;1.08;;;19.10;75.80;;;;;;4737071;30;20191;-87
2021/05/26 11:45:00;;;;;;;2.45;0.80;;;19.20;78.00;;;;;;4736046;30;20190;-87
2021/05/26 11:47:41;;;;;;;1.02;0.63;;;19.50;76.90;;;;;;4736826;30;20249;-87
2021/05/26 11:50:16;;;;;;;1.63;0.95;;;19.30;70.10;;;;;;4751151;30;20321;-88
2021/05/26 11:52:42;;;;;;;3.45;0.80;;;19.70;76.70;;;;;;4750615;30;20228;-88
2021/05/26 11:55:08;;;;;;;2.28;0.80;;;19.50;75.80;;;;;;4752719;30;20240;-87
2021/05/26 11:57:41;;;;;;;1.20;0.50;;;19.50;70.80;;;;;;4752795;30;20584;-86
2021/05/26 12:00:27;;;;;;;5.13;1.00;;;19.10;72.10;;;;;;4720027;30;20641;-87
2021/05/26 12:02:56;;;;;;;1.98;0.82;;;18.70;70.60;;;;;;4751793;30;20178;-88
2021/05/26 12:05:49;;;;;;;1.52;0.95;;;18.50;74.60;;;;;;4752646;30;20233;-88
2021/05/26 12:08:29;;;;;;;7.00;0.80;;;18.90;72.10;;;;;;4751655;30;20654;-87
2021/05/26 12:11:00;;;;;;;3.10;1.00;;;19.00;71.50;;;;;;4735413;30;20214;-87
2021/05/26 12:13:28;;;;;;;2.67;0.70;;;19.40;76.30;;;;;;4734548;30;20274;-87
2021/05/26 12:15:56;;;;;;;3.05;0.75;;;19.20;68.40;;;;;;4736250;30;20210;-86
2021/05/26 12:18:22;;;;;;;1.13;0.70;;;18.80;75.20;;;;;;4752212;30;20191;-87
2021/05/26 12:20:50;;;;;;;3.03;1.15;;;19.00;71.10;;;;;;4707189;30;20189;-87
2021/05/26 12:23:36;;;;;;;1.80;0.85;;;18.90;72.60;;;;;;4721957;30;20239;-87
2021/05/26 12:26:20;;;;;;;1.95;1.00;;;18.90;72.90;;;;;;4751850;30;20716;-86
2021/05/26 12:28:45;;;;;;;5.60;0.98;;;18.80;70.70;;;;;;4752120;30;20190;-86
2021/05/26 12:31:15;;;;;;;1.65;0.80;;;19.00;72.90;;;;;;4751741;30;20700;-86
2021/05/26 12:33:52;;;;;;;3.92;1.00;;;19.10;71.30;;;;;;4736343;30;20191;-87
2021/05/26 12:36:20;;;;;;;5.82;1.35;;;19.50;70.20;;;;;;4736130;30;20190;-86
2021/05/26 12:38:46;;;;;;;1.63;0.70;;;19.80;73.60;;;;;;4736036;30;20656;-88
2021/05/26 12:41:23;;;;;;;4.18;0.70;;;20.00;69.70;;;;;;4721560;30;20289;-85
2021/05/26 12:43:51;;;;;;;2.30;0.80;;;19.70;67.00;;;;;;4736417;30;20186;-86
2021/05/26 12:46:39;;;;;;;1.58;0.80;;;19.40;66.20;;;;;;4736802;30;20202;-85
2021/05/26 12:49:28;;;;;;;2.10;0.70;;;19.60;68.30;;;;;;4752688;30;20218;-84
2021/05/26 12:51:58;;;;;;;1.67;0.60;;;19.90;69.70;;;;;;4751508;30;20221;-88
2021/05/26 12:54:24;;;;;;;3.67;0.90;;;19.90;65.40;;;;;;4736308;30;20595;-85
2021/05/26 12:57:06;;;;;;;3.50;0.98;;;20.00;64.90;;;;;;4719812;30;20636;-88
2021/05/26 12:59:40;;;;;;;1.40;0.88;;;19.60;64.00;;;;;;4719549;30;20218;-86
2021/05/26 13:02:08;;;;;;;4.97;1.25;;;19.70;66.10;;;;;;4736212;30;20649;-85
2021/05/26 13:04:34;;;;;;;1.45;0.80;;;19.40;65.00;;;;;;4736202;30;20187;-86